createdAt,value
2022-07-25T00:02:01.061Z,22.39
2022-07-25T00:04:31.295Z,22.42
2022-07-25T00:06:59.531Z,22.61
2022-07-25T00:09:27.273Z,22.44
2022-07-25T00:11:55.026Z,22.28
2022-07-25T00:14:22.813Z,22.46
2022-07-25T00:16:50.661Z,22.33
2022-07-25T00:19:18.723Z,22.31
2022-07-25T00:21:47.919Z,22.21
2022-07-25T00:24:15.669Z,22.26
2022-07-25T00:26:43.767Z,22.38
2022-07-25T00:29:11.524Z,22.54
2022-07-25T00:31:39.306Z,22.51
2022-07-25T00:34:07.526Z,22.58
2022-07-25T00:36:35.576Z,22.30
2022-07-25T00:39:05.117Z,21.87
2022-07-25T00:41:33.006Z,21.88
2022-07-25T00:44:00.756Z,21.81
2022-07-25T00:46:28.655Z,22.16
2022-07-25T00:48:56.557Z,22.01
2022-07-25T00:51:24.540Z,22.02
2022-07-25T00:53:52.319Z,21.98
2022-07-25T00:56:21.564Z,22.12
2022-07-25T00:58:49.303Z,21.72
2022-07-25T01:01:17.385Z,22.04
2022-07-25T01:03:45.254Z,21.97
2022-07-25T01:06:13.193Z,21.97
2022-07-25T01:08:41.080Z,22.09
2022-07-25T01:11:10.713Z,22.09
2022-07-25T01:13:39.879Z,21.92
2022-07-25T01:16:08.167Z,21.98
2022-07-25T01:18:35.945Z,21.92
2022-07-25T01:21:05.330Z,21.87
2022-07-25T01:23:33.252Z,21.89
2022-07-25T01:26:00.999Z,21.72
2022-07-25T01:28:28.947Z,21.73
2022-07-25T01:30:56.779Z,21.85
2022-07-25T01:33:24.543Z,21.84
2022-07-25T01:35:52.726Z,21.66
2022-07-25T01:38:21.855Z,21.72
2022-07-25T01:40:49.606Z,21.69
2022-07-25T01:43:17.380Z,21.77
2022-07-25T01:45:45.151Z,21.72
2022-07-25T01:48:13.022Z,21.60
2022-07-25T01:50:40.794Z,21.73
2022-07-25T01:53:08.641Z,21.59
2022-07-25T01:55:37.780Z,21.62
2022-07-25T01:58:06.377Z,21.62
2022-07-25T02:00:35.675Z,21.22
2022-07-25T02:03:35.631Z,21.50
2022-07-25T02:06:06.747Z,21.58
2022-07-25T02:08:34.779Z,21.24
2022-07-25T02:11:04.013Z,21.10
2022-07-25T02:13:31.802Z,21.35
2022-07-25T02:15:59.529Z,21.34
2022-07-25T02:18:27.301Z,21.49
2022-07-25T02:20:55.097Z,21.43
2022-07-25T02:23:22.845Z,21.32
2022-07-25T02:25:50.626Z,21.17
2022-07-25T02:28:19.790Z,21.11
2022-07-25T02:30:47.587Z,21.21
2022-07-25T02:33:15.409Z,21.06
2022-07-25T02:35:43.153Z,20.86
2022-07-25T02:38:10.891Z,21.07
2022-07-25T02:40:38.636Z,21.20
2022-07-25T02:43:06.458Z,21.23
2022-07-25T02:45:35.763Z,21.04
2022-07-25T02:48:03.569Z,21.42
2022-07-25T02:50:31.499Z,21.21
2022-07-25T02:52:59.487Z,21.26
2022-07-25T02:55:27.304Z,21.43
2022-07-25T02:57:55.045Z,21.54
2022-07-25T03:00:22.779Z,21.61
2022-07-25T03:02:52.437Z,21.64
2022-07-25T03:05:20.252Z,21.40
2022-07-25T03:07:48.104Z,21.39
2022-07-25T03:10:16.495Z,21.38
2022-07-25T03:12:45.577Z,21.26
2022-07-25T03:15:15.725Z,21.20
2022-07-25T03:17:43.502Z,21.43
2022-07-25T03:20:13.091Z,21.30
2022-07-25T03:22:40.871Z,21.53
2022-07-25T03:25:15.733Z,21.46
2022-07-25T03:27:49.512Z,21.75
2022-07-25T03:30:17.370Z,21.28
2022-07-25T03:32:45.122Z,21.66
2022-07-25T03:35:14.226Z,21.33
2022-07-25T03:37:41.975Z,21.66
2022-07-25T03:40:11.626Z,21.44
2022-07-25T03:42:39.390Z,21.61
2022-07-25T03:45:08.224Z,21.45
2022-07-25T03:47:35.976Z,21.62
2022-07-25T03:50:03.834Z,21.64
2022-07-25T03:52:33.300Z,21.56
2022-07-25T03:55:01.205Z,21.48
2022-07-25T03:57:28.976Z,21.64
2022-07-25T03:59:56.775Z,21.39
2022-07-25T04:02:24.624Z,21.40
2022-07-25T04:04:52.692Z,21.63
2022-07-25T04:07:20.446Z,21.80
2022-07-25T04:09:49.526Z,21.91
2022-07-25T04:12:17.345Z,21.99
2022-07-25T04:14:45.661Z,21.92
2022-07-25T04:17:13.489Z,21.73
2022-07-25T04:19:41.745Z,22.02
2022-07-25T04:22:09.546Z,21.92
2022-07-25T04:24:37.464Z,21.86
2022-07-25T04:27:06.698Z,21.74
2022-07-25T04:29:34.454Z,21.90
2022-07-25T04:32:02.324Z,22.00
2022-07-25T04:34:30.121Z,22.11
2022-07-25T04:36:57.914Z,21.80
2022-07-25T04:39:25.910Z,21.63
2022-07-25T04:41:53.630Z,21.34
2022-07-25T04:44:22.773Z,21.80
2022-07-25T04:46:50.503Z,21.94
2022-07-25T04:49:18.312Z,21.90
2022-07-25T04:51:46.127Z,21.61
2022-07-25T04:54:13.891Z,21.64
2022-07-25T04:56:41.757Z,21.99
2022-07-25T04:59:09.477Z,21.56
2022-07-25T05:01:38.651Z,21.70
2022-07-25T05:04:06.943Z,21.80
2022-07-25T05:06:34.993Z,21.87
2022-07-25T05:09:02.738Z,21.91
2022-07-25T05:11:30.489Z,22.15
2022-07-25T05:13:58.364Z,21.99
2022-07-25T05:16:26.160Z,22.01
2022-07-25T05:18:55.455Z,22.32
2022-07-25T05:21:23.258Z,22.01
2022-07-25T05:23:51.141Z,22.20
2022-07-25T05:26:18.911Z,22.12
2022-07-25T05:28:46.648Z,22.22
2022-07-25T05:31:14.454Z,22.06
2022-07-25T05:33:42.573Z,22.29
2022-07-25T05:36:11.775Z,21.70
2022-07-25T05:38:39.553Z,22.09
2022-07-25T05:41:07.442Z,22.12
2022-07-25T05:43:35.153Z,22.39
2022-07-25T05:46:04.088Z,22.27
2022-07-25T05:48:32.857Z,22.11
2022-07-25T05:51:01.153Z,22.10
2022-07-25T05:53:30.353Z,22.33
2022-07-25T05:55:58.107Z,21.60
2022-07-25T05:58:29.725Z,22.11
2022-07-25T06:00:58.071Z,22.09
2022-07-25T06:03:25.956Z,22.06
2022-07-25T06:05:53.807Z,21.77
2022-07-25T06:08:22.523Z,21.76
2022-07-25T06:10:51.791Z,21.93
2022-07-25T06:13:20.223Z,22.15
2022-07-25T06:15:48.681Z,22.28
2022-07-25T06:18:16.685Z,21.95
2022-07-25T06:20:44.548Z,21.92
2022-07-25T06:23:12.354Z,21.88
2022-07-25T06:25:40.908Z,21.97
2022-07-25T06:28:10.437Z,22.27
2022-07-25T06:30:38.563Z,21.86
2022-07-25T06:33:06.291Z,21.99
2022-07-25T06:35:34.053Z,21.89
2022-07-25T06:38:01.849Z,21.89
2022-07-25T06:40:29.833Z,21.94
2022-07-25T06:42:57.621Z,21.99
2022-07-25T06:45:26.771Z,22.18
2022-07-25T06:47:54.535Z,21.93
2022-07-25T06:50:22.371Z,21.90
2022-07-25T06:52:50.386Z,21.99
2022-07-25T06:55:18.246Z,22.19
2022-07-25T06:57:46.021Z,21.85
2022-07-25T07:00:15.025Z,22.29
2022-07-25T07:02:52.176Z,22.19
2022-07-25T07:05:20.306Z,22.18
2022-07-25T07:07:48.352Z,22.13
2022-07-25T07:10:16.772Z,21.95
2022-07-25T07:12:44.839Z,21.98
2022-07-25T07:15:13.294Z,22.02
2022-07-25T07:17:41.065Z,21.99
2022-07-25T07:20:11.181Z,21.90
2022-07-25T07:22:46.079Z,22.23
2022-07-25T07:25:15.795Z,22.66
2022-07-25T07:27:44.193Z,22.80
2022-07-25T07:30:14.726Z,22.84
2022-07-25T07:32:42.815Z,22.83
2022-07-25T07:35:13.096Z,22.62
2022-07-25T07:37:43.678Z,22.64
2022-07-25T07:40:18.134Z,22.90
2022-07-25T07:42:47.767Z,22.26
2022-07-25T07:45:17.648Z,22.04
2022-07-25T07:47:47.967Z,22.38
2022-07-25T07:50:18.481Z,22.24
2022-07-25T07:52:47.435Z,22.10
2022-07-25T07:55:33.755Z,23.01
2022-07-25T07:58:02.017Z,22.75
2022-07-25T08:00:31.051Z,23.36
2022-07-25T08:03:00.883Z,22.68
2022-07-25T08:05:31.956Z,22.88
2022-07-25T08:08:00.506Z,22.78
2022-07-25T08:10:30.671Z,23.10
2022-07-25T08:12:59.260Z,22.82
2022-07-25T08:15:27.608Z,22.84
2022-07-25T08:17:55.768Z,22.71
2022-07-25T08:20:39.504Z,22.99
2022-07-25T08:23:10.983Z,22.87
2022-07-25T08:25:38.909Z,23.10
2022-07-25T08:28:07.362Z,22.77
2022-07-25T08:30:35.658Z,23.16
2022-07-25T08:33:05.613Z,23.30
2022-07-25T08:35:34.791Z,23.36
2022-07-25T08:38:03.170Z,23.44
2022-07-25T08:40:34.374Z,23.34
2022-07-25T08:43:02.222Z,23.52
2022-07-25T08:45:30.402Z,23.03
2022-07-25T08:47:58.133Z,23.38
2022-07-25T08:50:28.421Z,23.50
2022-07-25T08:53:16.197Z,22.70
2022-07-25T08:55:46.654Z,22.76
2022-07-25T08:58:16.040Z,22.78
2022-07-25T09:00:44.745Z,22.75
2022-07-25T09:03:13.248Z,23.25
2022-07-25T09:05:41.831Z,23.88
2022-07-25T09:08:11.347Z,23.79
2022-07-25T09:10:42.322Z,24.09
2022-07-25T09:13:14.222Z,23.06
2022-07-25T09:15:47.358Z,23.89
2022-07-25T09:18:17.119Z,23.87
2022-07-25T09:20:46.729Z,24.45
2022-07-25T09:23:16.219Z,23.82
2022-07-25T09:25:44.002Z,23.60
2022-07-25T09:28:15.675Z,23.97
2022-07-25T09:30:55.450Z,24.29
2022-07-25T09:33:24.652Z,24.03
2022-07-25T09:35:52.940Z,24.19
2022-07-25T09:38:21.472Z,24.53
2022-07-25T09:40:57.285Z,24.35
2022-07-25T09:43:37.570Z,23.95
2022-07-25T09:46:06.923Z,24.10
2022-07-25T09:48:35.558Z,24.48
2022-07-25T09:51:03.910Z,24.63
2022-07-25T09:53:31.689Z,24.20
2022-07-25T09:56:00.103Z,24.36
2022-07-25T09:58:30.480Z,24.69
2022-07-25T10:01:03.425Z,25.06
2022-07-25T10:03:44.040Z,25.13
2022-07-25T10:06:20.687Z,24.53
2022-07-25T10:08:49.868Z,24.28
2022-07-25T10:11:22.153Z,24.33
2022-07-25T10:13:51.424Z,24.55
2022-07-25T10:16:20.710Z,24.61
2022-07-25T10:18:50.563Z,24.93
2022-07-25T10:21:26.329Z,24.91
2022-07-25T10:24:03.669Z,23.87
2022-07-25T10:26:32.772Z,24.24
2022-07-25T10:29:02.546Z,23.81
2022-07-25T10:31:37.675Z,24.27
2022-07-25T10:34:09.625Z,23.85
2022-07-25T10:36:45.897Z,23.90
2022-07-25T10:39:15.776Z,24.40
2022-07-25T10:41:45.912Z,24.52
2022-07-25T10:44:17.105Z,24.06
2022-07-25T10:46:45.793Z,23.63
2022-07-25T10:49:21.809Z,24.55
2022-07-25T10:51:57.433Z,24.43
2022-07-25T10:54:25.274Z,25.64
2022-07-25T10:56:55.180Z,25.54
2022-07-25T10:59:33.475Z,24.66
2022-07-25T11:02:01.793Z,25.05
2022-07-25T11:04:30.290Z,24.37
2022-07-25T11:06:58.196Z,24.70
2022-07-25T11:09:28.373Z,24.59
2022-07-25T11:11:57.553Z,24.94
2022-07-25T11:14:31.149Z,25.40
2022-07-25T11:17:14.493Z,24.41
2022-07-25T11:19:43.718Z,23.55
2022-07-25T11:22:12.303Z,24.26
2022-07-25T11:24:41.880Z,25.10
2022-07-25T11:27:12.524Z,24.92
2022-07-25T11:29:41.787Z,25.17
2022-07-25T11:32:13.090Z,25.76
2022-07-25T11:34:43.407Z,26.37
2022-07-25T11:37:13.553Z,25.95
2022-07-25T11:39:44.571Z,25.16
2022-07-25T11:42:16.213Z,24.78
2022-07-25T11:44:48.163Z,25.31
2022-07-25T11:47:28.749Z,25.85
2022-07-25T11:49:59.047Z,26.33
2022-07-25T11:52:33.159Z,26.54
2022-07-25T11:55:03.588Z,25.74
2022-07-25T11:57:33.465Z,25.70
2022-07-25T12:00:02.660Z,25.08
2022-07-25T12:02:35.114Z,25.23
2022-07-25T12:05:05.695Z,25.13
2022-07-25T12:07:41.821Z,25.51
2022-07-25T12:10:11.726Z,25.02
2022-07-25T12:12:49.598Z,25.17
2022-07-25T12:15:21.114Z,25.19
2022-07-25T12:17:51.410Z,26.51
2022-07-25T12:20:21.605Z,26.10
2022-07-25T12:22:50.923Z,26.09
2022-07-25T12:25:19.001Z,26.59
2022-07-25T12:27:46.926Z,26.98
2022-07-25T12:30:15.735Z,27.26
2022-07-25T12:32:44.246Z,26.57
2022-07-25T12:35:14.614Z,26.46
2022-07-25T12:37:43.210Z,26.35
2022-07-25T12:40:13.826Z,27.11
2022-07-25T12:42:41.930Z,27.34
2022-07-25T12:45:10.483Z,26.48
2022-07-25T12:47:38.777Z,26.84
2022-07-25T12:50:07.991Z,26.98
2022-07-25T12:52:38.004Z,26.47
2022-07-25T12:55:06.876Z,26.41
2022-07-25T12:57:36.185Z,27.00
2022-07-25T13:00:04.480Z,26.71
2022-07-25T13:02:32.410Z,27.01
2022-07-25T13:05:00.226Z,27.25
2022-07-25T13:07:28.794Z,27.66
2022-07-25T13:09:57.916Z,27.02
2022-07-25T13:12:25.647Z,27.31
2022-07-25T13:14:53.519Z,28.06
2022-07-25T13:17:25.062Z,27.13
2022-07-25T13:19:55.701Z,27.43
2022-07-25T13:22:23.613Z,26.42
2022-07-25T13:24:51.499Z,26.29
2022-07-25T13:27:21.138Z,26.09
2022-07-25T13:29:53.952Z,26.53
2022-07-25T13:32:22.187Z,26.92
2022-07-25T13:34:50.104Z,26.96
2022-07-25T13:37:17.914Z,27.50
2022-07-25T13:39:45.958Z,27.37
2022-07-25T13:42:13.709Z,27.45
2022-07-25T13:44:43.112Z,27.31
2022-07-25T13:47:10.902Z,27.11
2022-07-25T13:49:38.720Z,28.57
2022-07-25T13:52:07.187Z,27.84
2022-07-25T13:54:35.024Z,27.55
2022-07-25T13:57:03.463Z,26.75
2022-07-25T13:59:31.369Z,27.02
2022-07-25T14:02:00.575Z,28.29
2022-07-25T14:04:28.400Z,27.68
2022-07-25T14:06:58.349Z,28.01
2022-07-25T14:09:26.099Z,27.19
2022-07-25T14:11:53.950Z,26.18
2022-07-25T14:14:21.662Z,26.38
2022-07-25T14:16:49.980Z,26.91
2022-07-25T14:19:19.237Z,26.71
2022-07-25T14:21:47.103Z,26.25
2022-07-25T14:24:14.882Z,26.27
2022-07-25T14:26:42.706Z,26.75
2022-07-25T14:29:11.295Z,26.10
2022-07-25T14:31:40.759Z,25.84
2022-07-25T14:34:09.051Z,26.42
2022-07-25T14:36:38.255Z,26.48
2022-07-25T14:39:06.394Z,26.21
2022-07-25T14:41:34.566Z,25.73
2022-07-25T14:44:02.550Z,26.14
2022-07-25T14:46:30.487Z,26.46
2022-07-25T14:48:58.742Z,25.74
2022-07-25T14:51:26.581Z,26.30
2022-07-25T14:53:55.720Z,27.09
2022-07-25T14:56:24.063Z,26.74
2022-07-25T14:58:51.867Z,26.90
2022-07-25T15:01:21.119Z,26.18
2022-07-25T15:03:49.133Z,26.23
2022-07-25T15:06:17.438Z,26.68
2022-07-25T15:08:45.399Z,26.61
2022-07-25T15:11:14.519Z,26.06
2022-07-25T15:13:42.293Z,26.64
2022-07-25T15:16:10.190Z,26.68
2022-07-25T15:18:58.485Z,25.67
2022-07-25T15:21:26.668Z,26.32
2022-07-25T15:23:54.616Z,27.07
2022-07-25T15:26:23.806Z,26.90
2022-07-25T15:28:51.589Z,26.49
2022-07-25T15:31:21.371Z,26.87
2022-07-25T15:33:49.237Z,26.16
2022-07-25T15:36:16.985Z,25.83
2022-07-25T15:38:45.869Z,26.19
2022-07-25T15:41:13.739Z,25.95
2022-07-25T15:43:43.070Z,25.77
2022-07-25T15:46:13.108Z,25.52
2022-07-25T15:48:41.509Z,25.71
2022-07-25T15:51:09.307Z,25.90
2022-07-25T15:53:37.050Z,26.30
2022-07-25T15:56:05.166Z,26.04
2022-07-25T15:58:32.895Z,25.42
2022-07-25T16:01:02.135Z,25.87
2022-07-25T16:03:30.028Z,25.82
2022-07-25T16:05:57.882Z,26.27
2022-07-25T16:08:25.718Z,26.22
2022-07-25T16:10:53.621Z,26.31
2022-07-25T16:13:21.400Z,26.31
2022-07-25T16:15:49.277Z,25.95
2022-07-25T16:18:18.430Z,26.15
2022-07-25T16:20:46.160Z,25.79
2022-07-25T16:23:13.889Z,26.07
2022-07-25T16:25:41.722Z,26.20
2022-07-25T16:28:09.496Z,26.28
2022-07-25T16:30:37.220Z,26.48
2022-07-25T16:33:05.217Z,26.07
2022-07-25T16:35:34.433Z,26.24
2022-07-25T16:38:02.194Z,26.39
2022-07-25T16:40:30.988Z,26.53
2022-07-25T16:42:59.760Z,26.66
2022-07-25T16:45:28.630Z,26.22
2022-07-25T16:47:56.482Z,26.31
2022-07-25T16:50:24.261Z,25.90
2022-07-25T16:52:54.226Z,25.36
2022-07-25T16:55:22.135Z,25.44
2022-07-25T16:57:49.950Z,24.96
2022-07-25T17:00:18.024Z,25.48
2022-07-25T17:02:46.636Z,25.28
2022-07-25T17:05:14.486Z,25.00
2022-07-25T17:07:42.359Z,25.21
2022-07-25T17:10:11.936Z,25.36
2022-07-25T17:12:39.710Z,24.35
2022-07-25T17:15:09.135Z,24.62
2022-07-25T17:17:36.846Z,25.05
2022-07-25T17:20:06.132Z,24.65
2022-07-25T17:22:33.946Z,24.88
2022-07-25T17:25:01.679Z,24.48
2022-07-25T17:27:31.088Z,24.49
2022-07-25T17:29:58.839Z,24.33
2022-07-25T17:32:29.978Z,24.07
2022-07-25T17:34:58.220Z,24.52
2022-07-25T17:37:27.629Z,24.31
2022-07-25T17:39:55.454Z,24.38
2022-07-25T17:42:23.917Z,24.46
2022-07-25T17:44:53.754Z,24.83
2022-07-25T17:47:21.536Z,24.99
2022-07-25T17:49:50.979Z,24.91
2022-07-25T17:52:18.729Z,25.21
2022-07-25T17:54:46.470Z,24.83
2022-07-25T17:57:14.345Z,24.89
2022-07-25T17:59:42.063Z,24.49
2022-07-25T18:02:11.304Z,24.65
2022-07-25T18:04:39.077Z,24.56
2022-07-25T18:07:06.895Z,24.25
2022-07-25T18:09:34.667Z,24.45
2022-07-25T18:12:02.817Z,24.54
2022-07-25T18:14:31.083Z,24.53
2022-07-25T18:16:58.845Z,24.44
2022-07-25T18:19:28.052Z,24.43
2022-07-25T18:21:55.799Z,24.66
2022-07-25T18:24:28.822Z,24.43
2022-07-25T18:26:57.119Z,24.74
2022-07-25T18:29:25.063Z,24.20
2022-07-25T18:31:52.799Z,24.08
2022-07-25T18:34:20.540Z,24.42
2022-07-25T18:36:49.690Z,24.39
2022-07-25T18:39:17.578Z,24.16
2022-07-25T18:41:45.379Z,24.54
2022-07-25T18:44:13.152Z,24.05
2022-07-25T18:46:41.175Z,24.39
2022-07-25T18:49:09.106Z,24.19
2022-07-25T18:51:36.933Z,24.17
2022-07-25T18:54:06.878Z,24.32
2022-07-25T18:56:34.853Z,24.52
2022-07-25T18:59:02.711Z,23.88
2022-07-25T19:01:30.524Z,24.20
2022-07-25T19:03:58.299Z,24.22
2022-07-25T19:06:26.033Z,24.06
2022-07-25T19:08:53.810Z,23.84
2022-07-25T19:11:22.938Z,23.78
2022-07-25T19:13:51.498Z,24.14
2022-07-25T19:16:20.769Z,24.12
2022-07-25T19:18:49.104Z,24.09
2022-07-25T19:21:17.074Z,24.11
2022-07-25T19:23:50.439Z,23.78
2022-07-25T19:26:18.615Z,23.74
2022-07-25T19:28:47.862Z,23.29
2022-07-25T19:31:15.766Z,23.36
2022-07-25T19:33:45.513Z,23.40
2022-07-25T19:36:13.476Z,23.24
2022-07-25T19:38:41.233Z,23.08
2022-07-25T19:41:09.384Z,23.12
2022-07-25T19:43:37.213Z,23.23
2022-07-25T19:46:06.528Z,23.17
2022-07-25T19:48:34.510Z,23.27
2022-07-25T19:51:02.327Z,23.40
2022-07-25T19:53:30.452Z,23.31
2022-07-25T19:55:58.255Z,23.48
2022-07-25T19:58:26.040Z,23.73
2022-07-25T20:00:53.981Z,23.42
2022-07-25T20:03:23.757Z,23.28
2022-07-25T20:05:52.034Z,23.04
2022-07-25T20:08:19.926Z,22.93
2022-07-25T20:10:48.328Z,22.86
2022-07-25T20:13:16.278Z,23.11
2022-07-25T20:15:44.045Z,23.04
2022-07-25T20:18:15.996Z,23.32
2022-07-25T20:20:48.690Z,23.05
2022-07-25T20:23:16.500Z,23.32
2022-07-25T20:25:44.378Z,23.25
2022-07-25T20:28:12.350Z,23.20
2022-07-25T20:30:40.521Z,23.09
2022-07-25T20:33:09.541Z,23.21
2022-07-25T20:35:38.731Z,23.37
2022-07-25T20:38:10.110Z,23.21
2022-07-25T20:40:38.868Z,23.14
2022-07-25T20:43:09.082Z,22.73
2022-07-25T20:45:37.536Z,22.72
2022-07-25T20:48:05.598Z,22.74
2022-07-25T20:50:33.529Z,22.50
2022-07-25T20:53:01.284Z,22.61
2022-07-25T20:55:31.315Z,22.83
2022-07-25T20:57:59.144Z,22.91
2022-07-25T21:00:28.714Z,23.07
2022-07-25T21:02:56.495Z,22.75
2022-07-25T21:05:24.527Z,22.68
2022-07-25T21:07:52.286Z,22.88
2022-07-25T21:10:20.378Z,22.49
2022-07-25T21:12:49.634Z,22.88
2022-07-25T21:15:17.702Z,22.93
2022-07-25T21:17:45.602Z,22.73
2022-07-25T21:20:15.526Z,22.73
2022-07-25T21:22:44.429Z,22.61
2022-07-25T21:25:12.443Z,22.71
2022-07-25T21:27:40.747Z,22.78
2022-07-25T21:30:11.875Z,22.51
2022-07-25T21:32:40.946Z,22.51
2022-07-25T21:35:09.597Z,22.40
2022-07-25T21:37:37.509Z,22.70
2022-07-25T21:40:06.145Z,22.60
2022-07-25T21:42:33.886Z,22.29
2022-07-25T21:45:01.679Z,22.14
2022-07-25T21:47:30.807Z,21.87
2022-07-25T21:50:23.184Z,22.14
2022-07-25T21:52:53.106Z,22.37
2022-07-25T21:55:21.162Z,22.31
2022-07-25T21:57:49.108Z,22.23
2022-07-25T22:00:17.174Z,22.35
2022-07-25T22:02:47.588Z,22.19
2022-07-25T22:05:17.136Z,21.74
2022-07-25T22:07:47.545Z,22.11
2022-07-25T22:10:16.983Z,22.06
2022-07-25T22:12:44.980Z,22.18
2022-07-25T22:15:13.887Z,22.13
2022-07-25T22:17:48.432Z,22.02
2022-07-25T22:20:19.273Z,21.96
2022-07-25T22:22:47.881Z,21.82
2022-07-25T22:25:15.782Z,21.92
2022-07-25T22:27:43.556Z,21.96
2022-07-25T22:30:16.470Z,21.75
2022-07-25T22:32:46.693Z,21.74
2022-07-25T22:35:14.630Z,21.87
2022-07-25T22:37:43.949Z,21.94
2022-07-25T22:40:12.851Z,21.75
2022-07-25T22:42:40.646Z,21.89
2022-07-25T22:45:09.419Z,21.91
2022-07-25T22:47:37.179Z,21.94
2022-07-25T22:50:05.472Z,21.76
2022-07-25T22:52:34.889Z,21.54
2022-07-25T22:55:04.209Z,21.65
2022-07-25T22:57:36.728Z,21.75
2022-07-25T23:00:07.135Z,21.57
2022-07-25T23:02:35.011Z,21.82
2022-07-25T23:05:02.794Z,21.61
2022-07-25T23:07:30.566Z,21.64
2022-07-25T23:09:58.385Z,21.53
2022-07-25T23:12:27.495Z,21.70
2022-07-25T23:14:55.234Z,21.61
2022-07-25T23:17:24.586Z,21.88
2022-07-25T23:19:54.087Z,21.67
2022-07-25T23:22:23.953Z,21.73
2022-07-25T23:24:52.264Z,21.86
2022-07-25T23:27:20.002Z,21.92
2022-07-25T23:29:49.126Z,21.59
2022-07-25T23:32:16.917Z,21.31
2022-07-25T23:34:44.986Z,21.53
2022-07-25T23:37:12.890Z,21.46
2022-07-25T23:39:40.609Z,21.58
2022-07-25T23:42:08.561Z,21.69
2022-07-25T23:44:36.565Z,21.68
2022-07-25T23:47:10.124Z,21.60
2022-07-25T23:49:38.185Z,21.66
2022-07-25T23:52:06.603Z,21.31
2022-07-25T23:54:34.886Z,21.37
2022-07-25T23:57:03.429Z,21.32
2022-07-25T23:59:31.517Z,21.53
